sensor_id;sensor_type;location;lat;lon;timestamp;P1;durP1;ratioP1;P2;durP2;ratioP2
75320;SDS011;63920;52.130;5.584;2023-02-28T00:00:32;4.45;;;3.28;;
75320;SDS011;63920;52.130;5.584;2023-02-28T00:02:58;6.10;;;2.80;;
75320;SDS011;63920;52.130;5.584;2023-02-28T00:05:24;4.10;;;3.00;;
75320;SDS011;63920;52.130;5.584;2023-02-28T00:07:51;4.60;;;2.83;;
75320;SDS011;63920;52.130;5.584;2023-02-28T00:10:18;5.95;;;3.30;;
75320;SDS011;63920;52.130;5.584;2023-02-28T00:12:52;4.53;;;2.95;;
75320;SDS011;63920;52.130;5.584;2023-02-28T00:15:19;4.75;;;3.05;;
75320;SDS011;63920;52.130;5.584;2023-02-28T00:17:45;5.07;;;2.88;;
75320;SDS011;63920;52.130;5.584;2023-02-28T00:20:11;4.78;;;2.72;;
75320;SDS011;63920;52.130;5.584;2023-02-28T00:22:39;3.70;;;2.72;;
75320;SDS011;63920;52.130;5.584;2023-02-28T00:25:13;3.92;;;2.58;;
75320;SDS011;63920;52.130;5.584;2023-02-28T00:27:40;6.18;;;2.60;;
75320;SDS011;63920;52.130;5.584;2023-02-28T00:30:07;6.93;;;3.10;;
75320;SDS011;63920;52.130;5.584;2023-02-28T00:32:35;7.80;;;2.97;;
75320;SDS011;63920;52.130;5.584;2023-02-28T00:35:02;5.00;;;2.75;;
75320;SDS011;63920;52.130;5.584;2023-02-28T00:37:28;5.40;;;2.40;;
75320;SDS011;63920;52.130;5.584;2023-02-28T00:39:54;5.20;;;2.42;;
75320;SDS011;63920;52.130;5.584;2023-02-28T00:42:19;4.47;;;2.67;;
75320;SDS011;63920;52.130;5.584;2023-02-28T00:44:45;5.18;;;2.90;;
75320;SDS011;63920;52.130;5.584;2023-02-28T00:47:10;3.58;;;2.50;;
75320;SDS011;63920;52.130;5.584;2023-02-28T00:49:36;5.07;;;2.95;;
75320;SDS011;63920;52.130;5.584;2023-02-28T00:52:02;3.83;;;2.80;;
75320;SDS011;63920;52.130;5.584;2023-02-28T00:54:27;3.90;;;2.28;;
75320;SDS011;63920;52.130;5.584;2023-02-28T00:56:53;3.13;;;2.55;;
75320;SDS011;63920;52.130;5.584;2023-02-28T00:59:19;2.63;;;2.40;;
75320;SDS011;63920;52.130;5.584;2023-02-28T01:01:45;4.38;;;2.75;;
75320;SDS011;63920;52.130;5.584;2023-02-28T01:04:11;4.80;;;3.10;;
75320;SDS011;63920;52.130;5.584;2023-02-28T01:06:37;3.22;;;2.55;;
75320;SDS011;63920;52.130;5.584;2023-02-28T01:09:04;4.95;;;2.85;;
75320;SDS011;63920;52.130;5.584;2023-02-28T01:11:30;3.45;;;2.85;;
75320;SDS011;63920;52.130;5.584;2023-02-28T01:13:56;3.90;;;2.95;;
75320;SDS011;63920;52.130;5.584;2023-02-28T01:16:22;3.58;;;2.53;;
75320;SDS011;63920;52.130;5.584;2023-02-28T01:18:47;4.88;;;2.88;;
75320;SDS011;63920;52.130;5.584;2023-02-28T01:21:15;7.90;;;3.65;;
75320;SDS011;63920;52.130;5.584;2023-02-28T01:23:42;4.15;;;2.45;;
75320;SDS011;63920;52.130;5.584;2023-02-28T01:26:08;7.38;;;3.20;;
75320;SDS011;63920;52.130;5.584;2023-02-28T01:28:47;5.55;;;2.92;;
75320;SDS011;63920;52.130;5.584;2023-02-28T01:31:14;6.88;;;2.63;;
75320;SDS011;63920;52.130;5.584;2023-02-28T01:33:40;5.25;;;2.90;;
75320;SDS011;63920;52.130;5.584;2023-02-28T01:38:42;4.18;;;2.88;;
75320;SDS011;63920;52.130;5.584;2023-02-28T01:41:09;4.93;;;2.88;;
75320;SDS011;63920;52.130;5.584;2023-02-28T01:46:08;5.80;;;2.88;;
75320;SDS011;63920;52.130;5.584;2023-02-28T01:48:35;4.25;;;2.92;;
75320;SDS011;63920;52.130;5.584;2023-02-28T01:51:07;4.88;;;3.17;;
75320;SDS011;63920;52.130;5.584;2023-02-28T01:53:42;9.52;;;2.90;;
75320;SDS011;63920;52.130;5.584;2023-02-28T01:56:12;6.68;;;2.90;;
75320;SDS011;63920;52.130;5.584;2023-02-28T01:58:46;5.65;;;3.15;;
75320;SDS011;63920;52.130;5.584;2023-02-28T02:01:12;4.05;;;3.10;;
75320;SDS011;63920;52.130;5.584;2023-02-28T02:03:46;6.38;;;2.90;;
75320;SDS011;63920;52.130;5.584;2023-02-28T02:06:24;4.82;;;3.10;;
75320;SDS011;63920;52.130;5.584;2023-02-28T02:08:54;4.38;;;3.00;;
75320;SDS011;63920;52.130;5.584;2023-02-28T02:11:20;3.65;;;2.70;;
75320;SDS011;63920;52.130;5.584;2023-02-28T02:19:37;6.03;;;2.97;;
75320;SDS011;63920;52.130;5.584;2023-02-28T02:22:12;3.38;;;2.85;;
75320;SDS011;63920;52.130;5.584;2023-02-28T02:24:58;6.57;;;3.28;;
75320;SDS011;63920;52.130;5.584;2023-02-28T02:30:40;8.38;;;2.80;;
75320;SDS011;63920;52.130;5.584;2023-02-28T02:33:23;6.88;;;2.95;;
75320;SDS011;63920;52.130;5.584;2023-02-28T02:41:36;5.55;;;2.90;;
75320;SDS011;63920;52.130;5.584;2023-02-28T02:44:20;7.18;;;2.97;;
75320;SDS011;63920;52.130;5.584;2023-02-28T02:47:10;6.22;;;3.40;;
75320;SDS011;63920;52.130;5.584;2023-02-28T02:49:40;4.68;;;3.28;;
75320;SDS011;63920;52.130;5.584;2023-02-28T02:52:10;5.10;;;3.00;;
75320;SDS011;63920;52.130;5.584;2023-02-28T02:54:43;6.57;;;3.10;;
75320;SDS011;63920;52.130;5.584;2023-02-28T02:57:14;4.60;;;2.97;;
75320;SDS011;63920;52.130;5.584;2023-02-28T02:59:46;6.97;;;2.53;;
75320;SDS011;63920;52.130;5.584;2023-02-28T03:02:14;4.47;;;2.72;;
75320;SDS011;63920;52.130;5.584;2023-02-28T03:04:43;5.63;;;3.28;;
75320;SDS011;63920;52.130;5.584;2023-02-28T03:07:13;4.88;;;3.22;;
75320;SDS011;63920;52.130;5.584;2023-02-28T03:09:39;3.67;;;3.17;;
75320;SDS011;63920;52.130;5.584;2023-02-28T03:12:04;5.63;;;3.22;;
75320;SDS011;63920;52.130;5.584;2023-02-28T03:23:33;4.63;;;3.45;;
75320;SDS011;63920;52.130;5.584;2023-02-28T03:26:12;8.80;;;3.40;;
75320;SDS011;63920;52.130;5.584;2023-02-28T03:28:49;5.15;;;3.17;;
75320;SDS011;63920;52.130;5.584;2023-02-28T03:31:41;5.32;;;3.20;;
75320;SDS011;63920;52.130;5.584;2023-02-28T03:34:45;4.88;;;3.40;;
75320;SDS011;63920;52.130;5.584;2023-02-28T03:37:11;4.63;;;3.33;;
75320;SDS011;63920;52.130;5.584;2023-02-28T03:39:45;4.20;;;2.70;;
75320;SDS011;63920;52.130;5.584;2023-02-28T03:42:15;7.13;;;3.67;;
75320;SDS011;63920;52.130;5.584;2023-02-28T03:44:46;4.82;;;2.92;;
75320;SDS011;63920;52.130;5.584;2023-02-28T03:47:27;7.10;;;3.33;;
75320;SDS011;63920;52.130;5.584;2023-02-28T03:50:01;4.30;;;3.42;;
75320;SDS011;63920;52.130;5.584;2023-02-28T03:52:33;4.30;;;3.90;;
75320;SDS011;63920;52.130;5.584;2023-02-28T03:55:03;14.07;;;9.10;;
75320;SDS011;63920;52.130;5.584;2023-02-28T04:00:45;6.30;;;4.13;;
75320;SDS011;63920;52.130;5.584;2023-02-28T04:03:12;6.10;;;4.35;;
75320;SDS011;63920;52.130;5.584;2023-02-28T04:05:51;4.38;;;3.33;;
75320;SDS011;63920;52.130;5.584;2023-02-28T04:08:19;3.83;;;3.38;;
75320;SDS011;63920;52.130;5.584;2023-02-28T04:10:45;5.32;;;3.42;;
75320;SDS011;63920;52.130;5.584;2023-02-28T04:13:16;3.92;;;3.47;;
75320;SDS011;63920;52.130;5.584;2023-02-28T04:15:41;6.82;;;3.72;;
75320;SDS011;63920;52.130;5.584;2023-02-28T04:18:07;3.55;;;3.28;;
75320;SDS011;63920;52.130;5.584;2023-02-28T04:20:33;3.08;;;2.80;;
75320;SDS011;63920;52.130;5.584;2023-02-28T04:22:59;4.28;;;3.30;;
75320;SDS011;63920;52.130;5.584;2023-02-28T04:25:24;3.25;;;2.95;;
75320;SDS011;63920;52.130;5.584;2023-02-28T04:27:50;6.57;;;3.70;;
75320;SDS011;63920;52.130;5.584;2023-02-28T04:30:15;6.65;;;3.28;;
75320;SDS011;63920;52.130;5.584;2023-02-28T04:32:41;4.97;;;3.55;;
75320;SDS011;63920;52.130;5.584;2023-02-28T04:35:07;3.17;;;2.92;;
75320;SDS011;63920;52.130;5.584;2023-02-28T04:37:33;4.03;;;2.80;;
75320;SDS011;63920;52.130;5.584;2023-02-28T04:40:00;5.65;;;3.13;;
75320;SDS011;63920;52.130;5.584;2023-02-28T04:42:26;3.40;;;3.05;;
75320;SDS011;63920;52.130;5.584;2023-02-28T04:44:51;4.38;;;2.92;;
75320;SDS011;63920;52.130;5.584;2023-02-28T04:47:17;4.45;;;2.83;;
75320;SDS011;63920;52.130;5.584;2023-02-28T04:49:43;4.55;;;2.92;;
75320;SDS011;63920;52.130;5.584;2023-02-28T04:52:08;3.28;;;2.45;;
75320;SDS011;63920;52.130;5.584;2023-02-28T04:54:35;3.85;;;3.10;;
75320;SDS011;63920;52.130;5.584;2023-02-28T04:57:00;3.60;;;3.00;;
75320;SDS011;63920;52.130;5.584;2023-02-28T04:59:26;4.82;;;3.15;;
75320;SDS011;63920;52.130;5.584;2023-02-28T05:01:52;3.15;;;2.80;;
75320;SDS011;63920;52.130;5.584;2023-02-28T05:04:17;7.43;;;3.33;;
75320;SDS011;63920;52.130;5.584;2023-02-28T05:06:43;3.47;;;2.83;;
75320;SDS011;63920;52.130;5.584;2023-02-28T05:09:09;2.70;;;2.50;;
75320;SDS011;63920;52.130;5.584;2023-02-28T05:11:36;3.78;;;2.90;;
75320;SDS011;63920;52.130;5.584;2023-02-28T05:14:04;3.47;;;2.80;;
75320;SDS011;63920;52.130;5.584;2023-02-28T05:16:32;3.92;;;3.47;;
75320;SDS011;63920;52.130;5.584;2023-02-28T05:18:58;3.45;;;3.15;;
75320;SDS011;63920;52.130;5.584;2023-02-28T05:23:55;3.08;;;2.88;;
75320;SDS011;63920;52.130;5.584;2023-02-28T05:26:22;4.10;;;3.05;;
75320;SDS011;63920;52.130;5.584;2023-02-28T05:28:48;3.45;;;2.45;;
75320;SDS011;63920;52.130;5.584;2023-02-28T05:31:14;3.00;;;2.80;;
75320;SDS011;63920;52.130;5.584;2023-02-28T05:33:40;5.40;;;2.90;;
75320;SDS011;63920;52.130;5.584;2023-02-28T05:36:06;4.47;;;2.90;;
75320;SDS011;63920;52.130;5.584;2023-02-28T05:38:32;3.80;;;2.67;;
75320;SDS011;63920;52.130;5.584;2023-02-28T05:40:57;5.32;;;2.88;;
75320;SDS011;63920;52.130;5.584;2023-02-28T05:43:23;5.07;;;3.63;;
75320;SDS011;63920;52.130;5.584;2023-02-28T05:45:49;10.05;;;3.25;;
75320;SDS011;63920;52.130;5.584;2023-02-28T05:48:14;5.15;;;3.00;;
75320;SDS011;63920;52.130;5.584;2023-02-28T05:50:40;4.80;;;2.67;;
75320;SDS011;63920;52.130;5.584;2023-02-28T05:53:07;3.47;;;3.17;;
75320;SDS011;63920;52.130;5.584;2023-02-28T05:55:33;4.68;;;3.25;;
75320;SDS011;63920;52.130;5.584;2023-02-28T05:58:00;2.50;;;2.30;;
75320;SDS011;63920;52.130;5.584;2023-02-28T06:00:26;5.30;;;2.90;;
75320;SDS011;63920;52.130;5.584;2023-02-28T06:02:52;3.75;;;3.10;;
75320;SDS011;63920;52.130;5.584;2023-02-28T06:05:21;2.88;;;2.67;;
75320;SDS011;63920;52.130;5.584;2023-02-28T06:07:47;3.20;;;2.90;;
75320;SDS011;63920;52.130;5.584;2023-02-28T06:10:13;5.07;;;3.20;;
75320;SDS011;63920;52.130;5.584;2023-02-28T06:12:39;3.30;;;2.88;;
75320;SDS011;63920;52.130;5.584;2023-02-28T06:15:06;3.33;;;3.10;;
75320;SDS011;63920;52.130;5.584;2023-02-28T06:17:32;6.18;;;3.70;;
75320;SDS011;63920;52.130;5.584;2023-02-28T06:19:58;4.88;;;3.88;;
75320;SDS011;63920;52.130;5.584;2023-02-28T06:22:24;5.95;;;4.10;;
75320;SDS011;63920;52.130;5.584;2023-02-28T06:24:49;4.25;;;3.55;;
75320;SDS011;63920;52.130;5.584;2023-02-28T06:27:15;4.25;;;3.72;;
75320;SDS011;63920;52.130;5.584;2023-02-28T06:29:40;8.13;;;4.10;;
75320;SDS011;63920;52.130;5.584;2023-02-28T06:32:06;3.85;;;3.40;;
75320;SDS011;63920;52.130;5.584;2023-02-28T06:34:32;5.55;;;4.00;;
75320;SDS011;63920;52.130;5.584;2023-02-28T06:36:59;3.20;;;2.90;;
75320;SDS011;63920;52.130;5.584;2023-02-28T06:39:27;6.03;;;3.38;;
75320;SDS011;63920;52.130;5.584;2023-02-28T06:41:54;3.35;;;3.05;;
75320;SDS011;63920;52.130;5.584;2023-02-28T06:44:19;3.20;;;2.88;;
75320;SDS011;63920;52.130;5.584;2023-02-28T06:46:45;4.40;;;4.03;;
75320;SDS011;63920;52.130;5.584;2023-02-28T06:49:11;4.10;;;3.20;;
75320;SDS011;63920;52.130;5.584;2023-02-28T06:51:38;3.70;;;3.20;;
75320;SDS011;63920;52.130;5.584;2023-02-28T06:54:06;7.45;;;3.88;;
75320;SDS011;63920;52.130;5.584;2023-02-28T06:56:35;7.15;;;4.20;;
75320;SDS011;63920;52.130;5.584;2023-02-28T06:59:02;5.78;;;3.30;;
75320;SDS011;63920;52.130;5.584;2023-02-28T07:01:28;5.47;;;3.58;;
75320;SDS011;63920;52.130;5.584;2023-02-28T07:03:54;3.33;;;3.03;;
75320;SDS011;63920;52.130;5.584;2023-02-28T07:06:23;6.25;;;3.28;;
75320;SDS011;63920;52.130;5.584;2023-02-28T07:08:49;3.00;;;2.70;;
75320;SDS011;63920;52.130;5.584;2023-02-28T07:11:17;4.07;;;2.97;;
75320;SDS011;63920;52.130;5.584;2023-02-28T07:13:43;4.90;;;2.95;;
75320;SDS011;63920;52.130;5.584;2023-02-28T07:16:09;3.80;;;2.95;;
75320;SDS011;63920;52.130;5.584;2023-02-28T07:18:36;5.25;;;2.92;;
75320;SDS011;63920;52.130;5.584;2023-02-28T07:21:03;3.60;;;3.22;;
75320;SDS011;63920;52.130;5.584;2023-02-28T07:23:30;3.53;;;3.08;;
75320;SDS011;63920;52.130;5.584;2023-02-28T07:25:56;6.55;;;3.47;;
75320;SDS011;63920;52.130;5.584;2023-02-28T07:28:21;6.95;;;3.65;;
75320;SDS011;63920;52.130;5.584;2023-02-28T07:30:47;6.50;;;3.78;;
75320;SDS011;63920;52.130;5.584;2023-02-28T07:33:13;8.13;;;3.97;;
75320;SDS011;63920;52.130;5.584;2023-02-28T07:35:39;3.58;;;3.13;;
75320;SDS011;63920;52.130;5.584;2023-02-28T07:38:05;6.20;;;3.30;;
75320;SDS011;63920;52.130;5.584;2023-02-28T07:40:32;5.55;;;4.10;;
75320;SDS011;63920;52.130;5.584;2023-02-28T07:42:59;16.73;;;9.43;;
75320;SDS011;63920;52.130;5.584;2023-02-28T07:45:25;17.52;;;7.53;;
75320;SDS011;63920;52.130;5.584;2023-02-28T07:47:51;15.27;;;8.18;;
75320;SDS011;63920;52.130;5.584;2023-02-28T07:50:17;9.35;;;4.90;;
75320;SDS011;63920;52.130;5.584;2023-02-28T07:52:43;5.68;;;4.55;;
75320;SDS011;63920;52.130;5.584;2023-02-28T07:55:09;4.30;;;3.67;;
75320;SDS011;63920;52.130;5.584;2023-02-28T07:57:35;6.75;;;3.83;;
75320;SDS011;63920;52.130;5.584;2023-02-28T08:00:02;4.28;;;3.47;;
75320;SDS011;63920;52.130;5.584;2023-02-28T08:02:29;3.78;;;3.20;;
75320;SDS011;63920;52.130;5.584;2023-02-28T08:04:55;5.18;;;3.13;;
75320;SDS011;63920;52.130;5.584;2023-02-28T08:07:21;5.55;;;3.55;;
75320;SDS011;63920;52.130;5.584;2023-02-28T08:09:46;3.95;;;3.53;;
75320;SDS011;63920;52.130;5.584;2023-02-28T08:12:12;8.23;;;3.85;;
75320;SDS011;63920;52.130;5.584;2023-02-28T08:14:38;5.05;;;3.45;;
75320;SDS011;63920;52.130;5.584;2023-02-28T08:17:05;7.03;;;3.25;;
75320;SDS011;63920;52.130;5.584;2023-02-28T08:19:30;4.05;;;3.20;;
75320;SDS011;63920;52.130;5.584;2023-02-28T08:21:56;3.85;;;3.05;;
75320;SDS011;63920;52.130;5.584;2023-02-28T08:24:23;5.05;;;3.97;;
75320;SDS011;63920;52.130;5.584;2023-02-28T08:26:49;6.82;;;3.05;;
75320;SDS011;63920;52.130;5.584;2023-02-28T08:29:15;3.67;;;3.30;;
75320;SDS011;63920;52.130;5.584;2023-02-28T08:31:41;5.63;;;3.08;;
75320;SDS011;63920;52.130;5.584;2023-02-28T08:34:11;4.90;;;3.17;;
75320;SDS011;63920;52.130;5.584;2023-02-28T08:36:38;3.10;;;2.75;;
75320;SDS011;63920;52.130;5.584;2023-02-28T08:39:04;3.38;;;2.83;;
75320;SDS011;63920;52.130;5.584;2023-02-28T08:41:30;4.50;;;2.60;;
75320;SDS011;63920;52.130;5.584;2023-02-28T08:43:57;4.78;;;2.97;;
75320;SDS011;63920;52.130;5.584;2023-02-28T08:46:26;2.85;;;2.10;;
75320;SDS011;63920;52.130;5.584;2023-02-28T08:48:52;2.33;;;2.08;;
75320;SDS011;63920;52.130;5.584;2023-02-28T08:51:19;2.00;;;1.90;;
75320;SDS011;63920;52.130;5.584;2023-02-28T08:53:51;2.28;;;1.48;;
75320;SDS011;63920;52.130;5.584;2023-02-28T08:56:18;1.90;;;1.80;;
75320;SDS011;63920;52.130;5.584;2023-02-28T08:58:45;1.80;;;1.70;;
75320;SDS011;63920;52.130;5.584;2023-02-28T09:01:13;2.17;;;1.40;;
75320;SDS011;63920;52.130;5.584;2023-02-28T09:03:43;3.03;;;1.98;;
75320;SDS011;63920;52.130;5.584;2023-02-28T09:06:10;2.33;;;1.73;;
75320;SDS011;63920;52.130;5.584;2023-02-28T09:08:37;1.20;;;1.10;;
75320;SDS011;63920;52.130;5.584;2023-02-28T09:11:04;1.30;;;1.05;;
75320;SDS011;63920;52.130;5.584;2023-02-28T09:13:30;1.98;;;1.40;;
75320;SDS011;63920;52.130;5.584;2023-02-28T09:15:57;1.50;;;1.40;;
75320;SDS011;63920;52.130;5.584;2023-02-28T09:18:24;1.73;;;1.27;;
75320;SDS011;63920;52.130;5.584;2023-02-28T09:20:49;1.55;;;1.17;;
75320;SDS011;63920;52.130;5.584;2023-02-28T09:23:15;2.75;;;1.40;;
75320;SDS011;63920;52.130;5.584;2023-02-28T09:28:14;1.42;;;1.20;;
75320;SDS011;63920;52.130;5.584;2023-02-28T09:30:41;1.40;;;1.27;;
75320;SDS011;63920;52.130;5.584;2023-02-28T09:33:06;1.98;;;1.50;;
75320;SDS011;63920;52.130;5.584;2023-02-28T09:35:35;1.77;;;1.67;;
75320;SDS011;63920;52.130;5.584;2023-02-28T09:38:05;1.23;;;1.20;;
75320;SDS011;63920;52.130;5.584;2023-02-28T09:40:34;1.50;;;1.40;;
75320;SDS011;63920;52.130;5.584;2023-02-28T09:43:01;2.13;;;1.60;;
75320;SDS011;63920;52.130;5.584;2023-02-28T09:45:39;1.40;;;1.30;;
75320;SDS011;63920;52.130;5.584;2023-02-28T09:48:10;2.22;;;1.40;;
75320;SDS011;63920;52.130;5.584;2023-02-28T09:50:41;2.17;;;1.60;;
75320;SDS011;63920;52.130;5.584;2023-02-28T09:56:02;1.20;;;1.02;;
75320;SDS011;63920;52.130;5.584;2023-02-28T10:03:50;1.40;;;1.30;;
75320;SDS011;63920;52.130;5.584;2023-02-28T10:06:24;1.67;;;0.98;;
75320;SDS011;63920;52.130;5.584;2023-02-28T10:08:57;1.10;;;1.08;;
75320;SDS011;63920;52.130;5.584;2023-02-28T10:11:29;3.72;;;1.35;;
75320;SDS011;63920;52.130;5.584;2023-02-28T10:16:31;1.58;;;1.48;;
75320;SDS011;63920;52.130;5.584;2023-02-28T10:22:31;1.45;;;1.30;;
75320;SDS011;63920;52.130;5.584;2023-02-28T10:24:39;1.27;;;1.17;;
75320;SDS011;63920;52.130;5.584;2023-02-28T10:27:28;2.28;;;1.20;;
75320;SDS011;63920;52.130;5.584;2023-02-28T10:29:55;2.13;;;1.60;;
75320;SDS011;63920;52.130;5.584;2023-02-28T10:32:26;1.55;;;1.45;;
75320;SDS011;63920;52.130;5.584;2023-02-28T10:35:17;1.05;;;1.02;;
75320;SDS011;63920;52.130;5.584;2023-02-28T10:37:56;1.40;;;1.30;;
75320;SDS011;63920;52.130;5.584;2023-02-28T10:42:58;2.42;;;1.55;;
75320;SDS011;63920;52.130;5.584;2023-02-28T10:45:32;2.25;;;1.40;;
75320;SDS011;63920;52.130;5.584;2023-02-28T10:48:24;2.33;;;1.30;;
75320;SDS011;63920;52.130;5.584;2023-02-28T10:51:04;2.40;;;1.40;;
75320;SDS011;63920;52.130;5.584;2023-02-28T10:53:39;1.27;;;1.17;;
75320;SDS011;63920;52.130;5.584;2023-02-28T10:56:14;1.50;;;1.40;;
75320;SDS011;63920;52.130;5.584;2023-02-28T11:01:37;2.83;;;1.38;;
75320;SDS011;63920;52.130;5.584;2023-02-28T11:04:31;1.65;;;1.52;;
75320;SDS011;63920;52.130;5.584;2023-02-28T11:07:01;1.45;;;1.35;;
75320;SDS011;63920;52.130;5.584;2023-02-28T11:12:04;2.35;;;1.40;;
75320;SDS011;63920;52.130;5.584;2023-02-28T11:14:57;1.35;;;1.25;;
75320;SDS011;63920;52.130;5.584;2023-02-28T11:17:26;1.65;;;1.52;;
75320;SDS011;63920;52.130;5.584;2023-02-28T11:19:55;1.65;;;1.55;;
75320;SDS011;63920;52.130;5.584;2023-02-28T11:22:33;1.67;;;1.58;;
75320;SDS011;63920;52.130;5.584;2023-02-28T11:25:16;1.52;;;1.33;;
75320;SDS011;63920;52.130;5.584;2023-02-28T11:27:50;1.38;;;1.20;;
75320;SDS011;63920;52.130;5.584;2023-02-28T11:32:52;1.35;;;1.25;;
75320;SDS011;63920;52.130;5.584;2023-02-28T11:35:21;2.42;;;1.33;;
75320;SDS011;63920;52.130;5.584;2023-02-28T11:38:04;1.73;;;1.48;;
75320;SDS011;63920;52.130;5.584;2023-02-28T11:40:46;1.70;;;1.60;;
75320;SDS011;63920;52.130;5.584;2023-02-28T11:46:27;1.25;;;1.15;;
75320;SDS011;63920;52.130;5.584;2023-02-28T11:52:00;3.28;;;1.40;;
75320;SDS011;63920;52.130;5.584;2023-02-28T11:57:32;2.67;;;1.60;;
75320;SDS011;63920;52.130;5.584;2023-02-28T12:00:19;1.38;;;1.20;;
75320;SDS011;63920;52.130;5.584;2023-02-28T12:03:19;1.83;;;1.67;;
75320;SDS011;63920;52.130;5.584;2023-02-28T12:06:23;1.40;;;1.30;;
75320;SDS011;63920;52.130;5.584;2023-02-28T12:17:22;3.08;;;1.42;;
75320;SDS011;63920;52.130;5.584;2023-02-28T12:22:31;1.27;;;1.17;;
75320;SDS011;63920;52.130;5.584;2023-02-28T12:27:26;1.85;;;1.70;;
75320;SDS011;63920;52.130;5.584;2023-02-28T12:29:58;1.65;;;1.55;;
75320;SDS011;63920;52.130;5.584;2023-02-28T12:32:47;2.40;;;1.75;;
75320;SDS011;63920;52.130;5.584;2023-02-28T12:35:19;1.50;;;1.40;;
75320;SDS011;63920;52.130;5.584;2023-02-28T12:37:59;1.75;;;1.48;;
75320;SDS011;63920;52.130;5.584;2023-02-28T12:43:18;1.58;;;1.40;;
75320;SDS011;63920;52.130;5.584;2023-02-28T12:45:51;1.95;;;1.70;;
75320;SDS011;63920;52.130;5.584;2023-02-28T12:48:31;1.50;;;1.40;;
75320;SDS011;63920;52.130;5.584;2023-02-28T12:51:07;1.52;;;1.42;;
75320;SDS011;63920;52.130;5.584;2023-02-28T12:59:41;4.05;;;1.40;;
75320;SDS011;63920;52.130;5.584;2023-02-28T13:10:42;1.70;;;1.60;;
75320;SDS011;63920;52.130;5.584;2023-02-28T13:13:16;1.98;;;1.88;;
75320;SDS011;63920;52.130;5.584;2023-02-28T13:15:56;1.92;;;1.65;;
75320;SDS011;63920;52.130;5.584;2023-02-28T13:21:04;3.67;;;2.10;;
75320;SDS011;63920;52.130;5.584;2023-02-28T13:26:12;1.95;;;1.70;;
75320;SDS011;63920;52.130;5.584;2023-02-28T13:28:58;1.92;;;1.70;;
75320;SDS011;63920;52.130;5.584;2023-02-28T13:31:24;2.38;;;1.42;;
75320;SDS011;63920;52.130;5.584;2023-02-28T13:38:43;3.28;;;1.50;;
75320;SDS011;63920;52.130;5.584;2023-02-28T13:44:15;2.10;;;1.90;;
75320;SDS011;63920;52.130;5.584;2023-02-28T13:51:48;2.90;;;1.70;;
75320;SDS011;63920;52.130;5.584;2023-02-28T13:59:38;1.88;;;1.75;;
75320;SDS011;63920;52.130;5.584;2023-02-28T14:04:59;2.22;;;1.85;;
75320;SDS011;63920;52.130;5.584;2023-02-28T14:07:28;2.38;;;1.83;;
75320;SDS011;63920;52.130;5.584;2023-02-28T14:10:05;2.83;;;1.85;;
75320;SDS011;63920;52.130;5.584;2023-02-28T14:15:44;3.30;;;2.08;;
75320;SDS011;63920;52.130;5.584;2023-02-28T14:18:20;1.73;;;1.63;;
75320;SDS011;63920;52.130;5.584;2023-02-28T14:21:38;3.30;;;1.77;;
75320;SDS011;63920;52.130;5.584;2023-02-28T14:26:49;2.30;;;2.10;;
75320;SDS011;63920;52.130;5.584;2023-02-28T14:32:37;1.95;;;1.85;;
75320;SDS011;63920;52.130;5.584;2023-02-28T14:37:51;2.20;;;2.05;;
75320;SDS011;63920;52.130;5.584;2023-02-28T14:42:57;2.72;;;1.42;;
75320;SDS011;63920;52.130;5.584;2023-02-28T14:45:30;3.83;;;2.00;;
75320;SDS011;63920;52.130;5.584;2023-02-28T14:47:58;3.33;;;1.55;;
75320;SDS011;63920;52.130;5.584;2023-02-28T14:50:32;1.92;;;1.80;;
75320;SDS011;63920;52.130;5.584;2023-02-28T14:53:00;3.15;;;1.88;;
75320;SDS011;63920;52.130;5.584;2023-02-28T14:55:30;1.70;;;1.60;;
75320;SDS011;63920;52.130;5.584;2023-02-28T14:57:59;21.25;;;3.50;;
75320;SDS011;63920;52.130;5.584;2023-02-28T15:00:34;2.38;;;2.00;;
75320;SDS011;63920;52.130;5.584;2023-02-28T15:06:02;9.77;;;6.60;;
75320;SDS011;63920;52.130;5.584;2023-02-28T15:08:29;4.43;;;3.97;;
75320;SDS011;63920;52.130;5.584;2023-02-28T15:11:21;3.13;;;2.83;;
75320;SDS011;63920;52.130;5.584;2023-02-28T15:13:51;4.35;;;3.20;;
75320;SDS011;63920;52.130;5.584;2023-02-28T15:16:21;3.55;;;2.70;;
75320;SDS011;63920;52.130;5.584;2023-02-28T15:19:04;2.63;;;2.42;;
75320;SDS011;63920;52.130;5.584;2023-02-28T15:22:13;2.42;;;2.22;;
75320;SDS011;63920;52.130;5.584;2023-02-28T15:24:44;2.53;;;2.10;;
75320;SDS011;63920;52.130;5.584;2023-02-28T15:27:24;3.00;;;2.80;;
75320;SDS011;63920;52.130;5.584;2023-02-28T15:30:34;2.20;;;1.92;;
75320;SDS011;63920;52.130;5.584;2023-02-28T15:33:03;2.53;;;2.03;;
75320;SDS011;63920;52.130;5.584;2023-02-28T15:35:36;2.38;;;1.75;;
75320;SDS011;63920;52.130;5.584;2023-02-28T15:40:40;2.10;;;1.92;;
75320;SDS011;63920;52.130;5.584;2023-02-28T15:45:41;4.80;;;1.90;;
75320;SDS011;63920;52.130;5.584;2023-02-28T15:48:13;3.85;;;2.90;;
75320;SDS011;63920;52.130;5.584;2023-02-28T15:51:05;1.85;;;1.50;;
75320;SDS011;63920;52.130;5.584;2023-02-28T15:53:48;2.13;;;1.60;;
75320;SDS011;63920;52.130;5.584;2023-02-28T15:56:30;1.60;;;1.50;;
75320;SDS011;63920;52.130;5.584;2023-02-28T15:58:59;1.98;;;1.73;;
75320;SDS011;63920;52.130;5.584;2023-02-28T16:01:28;1.92;;;1.73;;
75320;SDS011;63920;52.130;5.584;2023-02-28T16:04:17;2.90;;;1.92;;
75320;SDS011;63920;52.130;5.584;2023-02-28T16:09:14;2.20;;;1.95;;
75320;SDS011;63920;52.130;5.584;2023-02-28T16:11:48;2.40;;;2.30;;
75320;SDS011;63920;52.130;5.584;2023-02-28T16:14:17;4.78;;;2.42;;
75320;SDS011;63920;52.130;5.584;2023-02-28T16:16:53;2.22;;;2.03;;
75320;SDS011;63920;52.130;5.584;2023-02-28T16:19:20;3.20;;;2.90;;
75320;SDS011;63920;52.130;5.584;2023-02-28T16:21:47;3.30;;;3.03;;
75320;SDS011;63920;52.130;5.584;2023-02-28T16:24:13;3.42;;;3.13;;
75320;SDS011;63920;52.130;5.584;2023-02-28T16:26:42;3.50;;;3.20;;
75320;SDS011;63920;52.130;5.584;2023-02-28T16:29:16;14.57;;;4.50;;
75320;SDS011;63920;52.130;5.584;2023-02-28T16:31:49;5.13;;;3.63;;
75320;SDS011;63920;52.130;5.584;2023-02-28T16:34:15;5.10;;;3.75;;
75320;SDS011;63920;52.130;5.584;2023-02-28T16:36:40;5.68;;;3.80;;
75320;SDS011;63920;52.130;5.584;2023-02-28T16:39:06;5.38;;;3.83;;
75320;SDS011;63920;52.130;5.584;2023-02-28T16:41:31;4.50;;;2.53;;
75320;SDS011;63920;52.130;5.584;2023-02-28T16:43:59;2.75;;;2.50;;
75320;SDS011;63920;52.130;5.584;2023-02-28T16:46:30;3.63;;;2.78;;
75320;SDS011;63920;52.130;5.584;2023-02-28T16:48:58;2.85;;;2.20;;
75320;SDS011;63920;52.130;5.584;2023-02-28T16:51:24;4.32;;;3.78;;
75320;SDS011;63920;52.130;5.584;2023-02-28T16:53:49;6.10;;;2.85;;
75320;SDS011;63920;52.130;5.584;2023-02-28T16:56:22;3.95;;;3.15;;
75320;SDS011;63920;52.130;5.584;2023-02-28T16:58:50;4.13;;;3.40;;
75320;SDS011;63920;52.130;5.584;2023-02-28T17:01:20;3.45;;;3.10;;
75320;SDS011;63920;52.130;5.584;2023-02-28T17:03:46;4.18;;;3.08;;
75320;SDS011;63920;52.130;5.584;2023-02-28T17:06:20;4.75;;;3.90;;
75320;SDS011;63920;52.130;5.584;2023-02-28T17:08:48;4.35;;;3.75;;
75320;SDS011;63920;52.130;5.584;2023-02-28T17:11:15;5.60;;;3.65;;
75320;SDS011;63920;52.130;5.584;2023-02-28T17:13:41;4.35;;;3.95;;
75320;SDS011;63920;52.130;5.584;2023-02-28T17:16:09;5.60;;;4.22;;
75320;SDS011;63920;52.130;5.584;2023-02-28T17:18:56;7.03;;;3.72;;
75320;SDS011;63920;52.130;5.584;2023-02-28T17:21:26;4.80;;;4.30;;
75320;SDS011;63920;52.130;5.584;2023-02-28T17:23:52;4.63;;;4.20;;
75320;SDS011;63920;52.130;5.584;2023-02-28T17:26:19;3.78;;;3.47;;
75320;SDS011;63920;52.130;5.584;2023-02-28T17:28:46;3.30;;;3.00;;
75320;SDS011;63920;52.130;5.584;2023-02-28T17:31:12;3.47;;;2.88;;
75320;SDS011;63920;52.130;5.584;2023-02-28T17:33:38;4.85;;;3.38;;
75320;SDS011;63920;52.130;5.584;2023-02-28T17:36:04;5.35;;;3.20;;
75320;SDS011;63920;52.130;5.584;2023-02-28T17:38:30;6.15;;;3.05;;